Terminal Aerodrome Forecast
Issued by NWS

Home | Current Version | Previous Version | Text Only | Print | Product List | Glossary On
Versions: 1 2 3 4 5 6 7 8 9 10 11 12
000
FTPQ31 PGUM 260531
TAFGUM
TAF

TAF
PKMJ 260531Z 2606/2706 05013KT P6SM VCTS SCT014CB SCT045 BKN120
      TEMPO 2607/2610 4SM SHRA SCT014 OVC030
     FM261100 07015KT P6SM VCSH SCT014 SCT045 BKN120=

USA.gov is the U.S. government's official web portal to all federal, state and local government web resources and services.